Time;durP1;ratioP1;P1;durP2;ratioP2;P2;SDS_P1;SDS_P2;PMS_P1;PMS_P2;Temp;Humidity;BMP_temperature;BMP_pressure;BME280_temperature;BME280_humidity;BME280_pressure;Samples;Min_cycle;Max_cycle;Signal;HPM_P1;HPM_P2
2023/11/21 00:01:37;;;;;;;22.05;10.02;;;7.30;99.90;;;6.68;100.00;99911.53;5020201;28;20061;-78
2023/11/21 00:04:03;;;;;;;25.13;9.98;;;7.30;99.90;;;6.73;100.00;99919.88;5017758;28;20076;-79
2023/11/21 00:06:30;;;;;;;29.30;10.77;;;7.30;99.90;;;6.74;100.00;99923.38;5016119;28;20132;-79
2023/11/21 00:08:56;;;;;;;24.08;10.10;;;7.30;99.90;;;6.73;100.00;99928.00;5021144;28;20437;-79
2023/11/21 00:11:22;;;;;;;28.52;9.93;;;7.30;99.90;;;6.75;100.00;99928.63;5024714;28;20481;-79
2023/11/21 00:13:47;;;;;;;27.50;9.82;;;7.30;99.90;;;6.79;100.00;99933.63;5015267;28;20033;-79
2023/11/21 00:16:13;;;;;;;24.75;10.05;;;7.40;99.90;;;6.80;100.00;99935.28;5012896;28;20486;-79
2023/11/21 00:18:39;;;;;;;24.75;10.57;;;7.40;99.90;;;6.81;100.00;99940.50;5011920;28;20034;-79
2023/11/21 00:21:05;;;;;;;20.88;10.55;;;7.40;99.90;;;6.85;100.00;99941.75;5011325;28;20038;-79
2023/11/21 00:23:31;;;;;;;31.58;11.45;;;7.40;99.90;;;6.85;100.00;99943.63;5018527;28;20053;-78
2023/11/21 00:25:57;;;;;;;26.23;11.27;;;7.40;99.90;;;6.86;100.00;99951.56;5012317;28;20053;-78
2023/11/21 00:28:22;;;;;;;32.50;11.48;;;7.40;99.90;;;6.86;100.00;99946.13;5015422;28;20037;-79
2023/11/21 00:30:48;;;;;;;30.55;11.68;;;7.40;99.90;;;6.86;100.00;99940.72;5016202;28;20034;-79
2023/11/21 00:33:14;;;;;;;32.22;11.57;;;7.50;99.90;;;6.86;100.00;99943.44;5020608;28;20230;-79
2023/11/21 00:35:39;;;;;;;28.20;11.73;;;7.50;99.90;;;6.85;100.00;99939.03;5023726;28;20458;-79
2023/11/21 00:38:05;;;;;;;26.55;11.20;;;7.40;99.90;;;6.81;100.00;99936.94;5014828;28;20730;-80
2023/11/21 00:40:32;;;;;;;27.00;11.15;;;7.40;99.90;;;6.81;100.00;99937.81;5019969;28;20076;-80
2023/11/21 00:42:58;;;;;;;24.35;10.75;;;7.40;99.90;;;6.80;100.00;99948.84;5012303;28;20065;-80
2023/11/21 00:45:24;;;;;;;20.02;10.80;;;7.40;99.90;;;6.72;100.00;99939.88;5026877;28;20021;-80
2023/11/21 00:47:50;;;;;;;28.60;11.20;;;7.30;99.90;;;6.67;100.00;99942.41;5026543;28;20434;-80
2023/11/21 00:50:16;;;;;;;24.10;10.27;;;7.30;99.90;;;6.66;100.00;99943.44;5017851;28;20045;-80
2023/11/21 00:52:42;;;;;;;29.73;11.18;;;7.30;99.90;;;6.59;100.00;99939.88;5011083;28;20410;-80
2023/11/21 00:55:08;;;;;;;25.15;10.73;;;7.20;99.90;;;6.53;100.00;99938.00;5011954;28;20079;-80
2023/11/21 00:57:35;;;;;;;27.38;10.98;;;7.20;99.90;;;6.52;100.00;99931.75;5011461;28;20041;-80
2023/11/21 01:00:01;;;;;;;29.95;12.05;;;7.10;99.90;;;6.46;100.00;99935.28;5010967;28;20478;-79
2023/11/21 01:02:27;;;;;;;31.45;12.05;;;7.10;99.90;;;6.48;100.00;99938.59;5011594;28;20069;-80
2023/11/21 01:04:53;;;;;;;32.22;12.68;;;7.10;99.90;;;6.46;100.00;99936.13;5011330;28;20057;-80
2023/11/21 01:07:20;;;;;;;28.70;12.07;;;7.10;99.90;;;6.48;100.00;99936.75;5014570;28;20081;-80
2023/11/21 01:09:46;;;;;;;34.88;12.65;;;7.20;99.90;;;6.55;100.00;99939.47;5017192;28;20034;-80
2023/11/21 01:12:12;;;;;;;32.13;13.55;;;7.20;99.90;;;6.58;100.00;99935.50;5014297;28;20038;-80
2023/11/21 01:14:37;;;;;;;31.38;13.25;;;7.20;99.90;;;6.59;100.00;99927.16;5028147;28;20457;-80
2023/11/21 01:17:04;;;;;;;34.60;13.82;;;7.30;99.90;;;6.61;100.00;99927.78;5010526;28;20515;-79
2023/11/21 01:19:31;;;;;;;39.17;14.35;;;7.30;99.90;;;6.62;100.00;99921.31;5010744;28;20030;-80
2023/11/21 01:21:58;;;;;;;28.35;12.73;;;7.30;99.90;;;6.65;100.00;99928.22;5010551;28;20038;-80
2023/11/21 01:24:25;;;;;;;34.05;14.98;;;7.30;99.90;;;6.69;100.00;99928.63;5011374;28;20030;-80
2023/11/21 01:26:50;;;;;;;31.38;13.63;;;7.30;99.90;;;6.67;100.00;99926.13;5025900;28;20116;-80
2023/11/21 01:29:17;;;;;;;35.95;14.02;;;7.30;99.90;;;6.69;100.00;99934.03;5017798;28;20033;-80
2023/11/21 01:31:42;;;;;;;32.00;12.75;;;7.30;99.90;;;6.69;100.00;99937.59;5025973;28;20049;-80
2023/11/21 01:34:08;;;;;;;38.92;14.88;;;7.30;99.90;;;6.66;100.00;99932.59;5016534;28;20402;-80
2023/11/21 01:36:35;;;;;;;29.27;14.13;;;7.30;99.90;;;6.70;100.00;99939.25;5015682;28;20037;-80
2023/11/21 01:39:01;;;;;;;33.03;13.48;;;7.30;99.90;;;6.67;100.00;99939.69;5010902;28;20113;-80
2023/11/21 01:41:30;;;;;;;33.05;13.65;;;7.30;99.90;;;6.67;100.00;99936.13;5014150;28;20049;-80
2023/11/21 01:43:56;;;;;;;29.27;12.98;;;7.30;99.90;;;6.72;100.00;99942.59;5005959;28;20034;-80
2023/11/21 01:46:24;;;;;;;32.13;13.93;;;7.30;99.90;;;6.71;100.00;99949.06;5014783;28;20116;-80
2023/11/21 01:48:50;;;;;;;30.77;13.38;;;7.30;99.90;;;6.76;100.00;99951.13;5024856;28;20054;-80
2023/11/21 01:51:18;;;;;;;32.08;14.68;;;7.40;99.90;;;6.74;100.00;99935.09;5014461;28;20041;-79
2023/11/21 01:53:46;;;;;;;;;;;7.40;99.90;;;6.78;100.00;99943.66;5014957;28;20918;-80
2023/11/21 01:56:13;;;;;;;32.70;13.77;;;7.40;99.90;;;6.78;100.00;99938.22;5014126;28;20320;-80
2023/11/21 01:58:40;;;;;;;33.10;13.38;;;7.40;99.90;;;6.87;100.00;99949.66;5014360;28;20092;-80
2023/11/21 02:01:06;;;;;;;38.60;14.83;;;7.40;99.90;;;6.86;100.00;99951.56;5019724;28;20132;-80
2023/11/21 02:03:31;;;;;;;31.40;13.18;;;7.40;99.90;;;6.85;100.00;99943.63;5016966;28;20400;-78
2023/11/21 02:05:57;;;;;;;35.83;14.13;;;7.40;99.90;;;6.86;100.00;99946.13;5028985;28;20466;-79
2023/11/21 02:08:26;;;;;;;35.95;14.60;;;7.40;99.90;;;6.88;100.00;99948.63;5017912;28;20457;-79
2023/11/21 02:10:52;;;;;;;40.47;15.40;;;7.40;99.90;;;6.82;100.00;99927.78;5032314;28;20029;-79
2023/11/21 02:13:18;;;;;;;39.83;14.48;;;7.40;99.90;;;6.90;100.00;99941.97;5015436;28;20216;-80
2023/11/21 02:15:44;;;;;;;33.55;14.23;;;7.50;99.90;;;6.89;100.00;99940.28;5017495;28;20397;-79
2023/11/21 02:18:11;;;;;;;39.92;14.77;;;7.50;99.90;;;6.95;100.00;99946.75;5025927;28;20033;-80
2023/11/21 02:20:38;;;;;;;40.05;15.20;;;7.50;99.90;;;6.90;100.00;99941.13;5015195;28;20096;-80
2023/11/21 02:23:05;;;;;;;37.28;13.10;;;7.50;99.90;;;6.95;100.00;99949.47;5017699;28;20048;-80
2023/11/21 02:25:33;;;;;;;37.28;14.85;;;7.50;99.90;;;6.96;100.00;99944.88;5013932;28;20052;-80
2023/11/21 02:28:03;;;;;;;;;;;7.50;99.90;;;6.99;100.00;99949.88;5019971;28;20116;-80
2023/11/21 02:30:31;;;;;;;34.20;13.90;;;7.50;99.90;;;7.00;100.00;99946.97;5013791;28;19940;-80
2023/11/21 02:32:57;;;;;;;37.40;13.80;;;7.50;99.90;;;7.01;100.00;99951.34;5014407;28;20115;-80
2023/11/21 02:35:28;;;;;;;38.20;13.45;;;7.50;99.90;;;7.01;100.00;99945.91;5013686;28;20389;-80
2023/11/21 02:37:54;;;;;;;42.67;14.30;;;7.50;99.90;;;7.01;100.00;99945.91;5031996;28;20068;-80
2023/11/21 02:40:24;;;;;;;41.15;15.45;;;7.50;99.90;;;7.03;100.00;99935.69;5013461;28;20233;-79
2023/11/21 02:42:50;;;;;;;40.58;15.35;;;7.60;99.90;;;7.01;100.00;99931.50;5012775;28;20159;-79
2023/11/21 02:45:18;;;;;;;38.30;15.98;;;7.60;99.90;;;7.02;100.00;99944.88;5013289;28;20478;-79
2023/11/21 02:47:45;;;;;;;36.92;14.90;;;7.60;99.90;;;7.03;100.00;99932.97;5017061;28;20084;-80
2023/11/21 02:50:11;;;;;;;35.42;14.70;;;7.60;99.90;;;7.04;100.00;99929.22;5013525;28;20118;-80
2023/11/21 02:52:37;;;;;;;32.97;14.32;;;7.50;99.90;;;7.03;100.00;99930.25;5013831;28;20046;-79
2023/11/21 02:55:04;;;;;;;34.63;14.23;;;7.60;99.90;;;7.02;100.00;99933.16;5025072;28;20389;-80
2023/11/21 02:57:30;;;;;;;42.10;15.60;;;7.60;99.90;;;7.00;100.00;99936.09;5013490;28;20038;-80
2023/11/21 02:59:55;;;;;;;36.33;14.40;;;7.60;99.90;;;7.03;100.00;99943.81;5017813;28;20125;-80
2023/11/21 03:02:22;;;;;;;44.80;14.27;;;7.50;99.90;;;6.97;100.00;99938.41;5020742;28;20053;-80
2023/11/21 03:04:49;;;;;;;37.35;14.43;;;7.50;99.90;;;6.96;100.00;99939.44;5014469;28;20544;-79
2023/11/21 03:07:15;;;;;;;35.13;14.77;;;7.50;99.90;;;7.00;100.00;99946.97;5018630;28;20048;-79
2023/11/21 03:09:41;;;;;;;36.58;13.50;;;7.50;99.90;;;6.96;100.00;99945.72;5012727;28;20038;-80
2023/11/21 03:12:09;;;;;;;39.63;15.27;;;7.50;99.90;;;6.98;100.00;99943.63;5020562;28;20535;-79
2023/11/21 03:14:35;;;;;;;38.15;15.15;;;7.50;99.90;;;6.97;100.00;99947.38;5021141;28;20042;-80
2023/11/21 03:17:01;;;;;;;39.47;14.40;;;7.50;99.90;;;7.00;100.00;99946.97;5013165;28;20041;-80
2023/11/21 03:19:27;;;;;;;37.88;15.80;;;7.50;99.90;;;6.98;100.00;99945.50;5034294;28;20401;-80
2023/11/21 03:21:53;;;;;;;35.85;15.15;;;7.60;99.90;;;7.00;100.00;99944.25;5012404;28;20041;-80
2023/11/21 03:24:19;;;;;;;39.22;15.65;;;7.60;99.90;;;7.03;100.00;99941.09;5013014;28;20053;-80
2023/11/21 03:26:46;;;;;;;37.72;13.85;;;7.60;99.90;;;7.04;100.00;99942.78;5025174;28;20048;-80
2023/11/21 03:29:12;;;;;;;40.38;15.10;;;7.60;99.90;;;7.09;100.00;99963.00;5016096;28;20048;-80
2023/11/21 03:31:39;;;;;;;39.20;14.15;;;7.60;99.90;;;7.12;100.00;99954.44;5017908;28;20049;-80
2023/11/21 03:34:04;;;;;;;38.17;14.48;;;7.60;99.90;;;7.18;100.00;99967.19;5011922;28;20044;-80
2023/11/21 03:36:30;;;;;;;35.65;14.45;;;7.60;99.90;;;7.20;100.00;99962.38;5023640;28;20037;-80
2023/11/21 03:38:56;;;;;;;39.60;15.18;;;7.70;99.90;;;7.24;100.00;99977.19;5013296;28;20096;-79
2023/11/21 03:41:22;;;;;;;38.97;16.10;;;7.70;99.90;;;7.21;100.00;99977.63;5007476;28;20052;-79
2023/11/21 03:43:47;;;;;;;38.30;15.00;;;7.70;99.90;;;7.23;100.00;99983.66;5016786;28;20434;-80
2023/11/21 03:46:14;;;;;;;34.88;14.90;;;7.70;99.90;;;7.22;100.00;99986.56;5014189;28;20033;-79
2023/11/21 03:48:40;;;;;;;41.70;15.80;;;7.70;99.90;;;7.27;100.00;99989.47;5016717;28;20477;-80
2023/11/21 03:51:06;;;;;;;34.95;15.13;;;7.70;99.90;;;7.17;100.00;99996.19;5012342;28;20036;-79
2023/11/21 03:53:35;;;;;;;35.65;14.73;;;7.80;99.90;;;7.27;100.00;99995.75;5028243;28;20038;-80
2023/11/21 03:56:03;;;;;;;40.30;15.68;;;7.80;99.90;;;7.28;100.00;99997.41;5012241;28;20036;-79
2023/11/21 03:58:29;;;;;;;37.33;15.27;;;7.80;99.90;;;7.29;100.00;99996.38;5012253;28;20470;-79
2023/11/21 04:00:55;;;;;;;35.53;14.98;;;7.80;99.90;;;7.31;100.00;100001.59;5027358;28;20061;-80
2023/11/21 04:03:21;;;;;;;38.30;16.15;;;7.80;99.90;;;7.32;100.00;99998.66;5018057;28;20485;-79
2023/11/21 04:05:47;;;;;;;40.45;16.75;;;7.80;99.90;;;7.31;100.00;100005.13;5010948;28;20038;-79
2023/11/21 04:08:13;;;;;;;43.38;17.95;;;7.80;99.90;;;7.29;100.00;100001.81;5016406;28;20030;-79
2023/11/21 04:10:39;;;;;;;39.60;16.88;;;7.80;99.90;;;7.29;100.00;100004.50;5011893;28;20164;-79
2023/11/21 04:13:06;;;;;;;41.55;16.55;;;7.80;99.90;;;7.28;100.00;100004.72;5017142;28;20486;-79
2023/11/21 04:15:32;;;;;;;46.40;17.13;;;7.80;99.90;;;7.27;100.00;99995.75;5021406;28;20124;-79
2023/11/21 04:17:58;;;;;;;48.65;17.02;;;7.80;99.90;;;7.22;100.00;99992.84;5014966;28;20295;-79
2023/11/21 04:20:24;;;;;;;46.03;17.75;;;7.70;99.90;;;7.25;100.00;99987.00;5018889;28;20037;-79
2023/11/21 04:22:50;;;;;;;47.80;17.95;;;7.70;99.90;;;7.21;100.00;99980.31;5024172;28;20085;-79
2023/11/21 04:25:16;;;;;;;54.60;18.58;;;7.80;99.90;;;7.25;100.00;99980.72;5018434;28;20061;-79
2023/11/21 04:27:45;;;;;;;47.25;17.95;;;7.70;99.90;;;7.24;100.00;99977.19;5011278;28;20080;-79
2023/11/21 04:30:12;;;;;;;49.05;18.67;;;7.70;99.90;;;7.17;100.00;99954.66;5015563;28;20033;-79
2023/11/21 04:32:39;;;;;;;50.63;18.60;;;7.70;99.90;;;7.25;100.00;99964.44;5017065;28;20040;-79
2023/11/21 04:35:05;;;;;;;49.50;19.33;;;7.80;99.90;;;7.24;100.00;99958.19;5014748;28;20041;-79
2023/11/21 04:37:31;;;;;;;55.40;19.80;;;7.70;99.90;;;7.22;100.00;99952.16;5013636;28;20450;-78
2023/11/21 04:39:56;;;;;;;55.25;19.30;;;7.70;99.90;;;7.22;100.00;99949.44;5013652;28;20116;-77
2023/11/21 04:42:22;;;;;;;60.72;19.73;;;7.70;99.90;;;7.24;100.00;99943.78;5011222;28;20034;-77
2023/11/21 04:44:49;;;;;;;57.50;20.95;;;7.70;99.90;;;7.25;100.00;99942.72;5011271;28;20441;-77
2023/11/21 04:47:15;;;;;;;55.53;19.83;;;7.70;99.90;;;7.18;100.00;99931.91;5011302;28;20030;-77
2023/11/21 04:49:47;;;;;;;54.38;20.55;;;7.80;99.90;;;7.17;100.00;99939.22;5011919;28;20379;-77
2023/11/21 04:52:12;;;;;;;61.75;20.13;;;7.70;99.90;;;7.16;100.00;99920.41;5023652;28;20045;-79
2023/11/21 04:54:39;;;;;;;60.97;21.27;;;7.80;99.90;;;7.20;100.00;99918.97;5024054;28;20045;-79
2023/11/21 04:57:07;;;;;;;68.35;21.77;;;7.80;99.90;;;7.22;100.00;99924.16;5028682;28;20041;-79
2023/11/21 04:59:34;;;;;;;61.90;21.10;;;7.80;99.90;;;7.22;100.00;99907.88;5033197;28;20057;-79
2023/11/21 05:02:02;;;;;;;65.07;20.25;;;7.80;99.90;;;7.26;100.00;99907.25;5028689;28;20044;-79
2023/11/21 05:04:28;;;;;;;66.18;21.67;;;7.80;99.90;;;7.27;100.00;99903.50;5027314;28;20033;-79
2023/11/21 05:06:54;;;;;;;63.92;21.02;;;7.80;99.90;;;7.27;100.00;99895.34;5031661;28;20033;-80
2023/11/21 05:09:20;;;;;;;66.10;21.33;;;7.80;99.90;;;7.23;100.00;99891.41;5046282;28;20437;-79
2023/11/21 05:11:45;;;;;;;77.60;22.95;;;7.90;99.90;;;7.32;100.00;99892.00;5025345;28;20265;-79
2023/11/21 05:14:11;;;;;;;65.78;22.30;;;7.90;99.90;;;7.29;100.00;99878.84;5028169;28;20041;-83
2023/11/21 05:16:37;;;;;;;77.85;22.05;;;7.90;99.90;;;7.34;100.00;99885.31;5024829;28;20456;-78
2023/11/21 05:19:03;;;;;;;57.88;21.10;;;7.90;99.90;;;7.38;100.00;99880.28;5023905;28;20037;-79
2023/11/21 05:21:32;;;;;;;70.88;23.15;;;7.90;99.90;;;7.31;100.00;99882.22;5016230;28;20025;-82
2023/11/21 05:23:58;;;;;;;72.80;22.63;;;7.90;99.90;;;7.36;100.00;99876.13;5022964;28;20037;-81
2023/11/21 05:26:24;;;;;;;82.90;23.20;;;7.90;99.90;;;7.33;100.00;99859.22;5029973;28;20033;-79
2023/11/21 05:28:50;;;;;;;73.30;22.10;;;8.00;99.90;;;7.37;100.00;99869.66;5035117;28;20176;-80
2023/11/21 05:31:15;;;;;;;71.43;22.00;;;8.00;99.90;;;7.27;100.00;99848.38;5028310;28;20647;-79
2023/11/21 05:33:42;;;;;;;70.53;22.42;;;8.00;99.90;;;7.32;100.00;99852.13;5015707;28;20060;-79
2023/11/21 05:36:09;;;;;;;68.07;21.52;;;8.00;99.90;;;7.39;100.00;99859.41;5014138;28;20486;-79
2023/11/21 05:38:36;;;;;;;72.97;20.85;;;8.00;99.90;;;7.43;100.00;99853.34;5014667;28;20034;-79
2023/11/21 05:41:03;;;;;;;58.85;18.80;;;8.10;99.90;;;7.37;100.00;99847.94;5015584;28;20042;-78
2023/11/21 05:43:30;;;;;;;65.15;20.10;;;8.10;99.90;;;7.44;100.00;99846.88;5034160;28;20041;-78
2023/11/21 05:45:56;;;;;;;61.58;18.77;;;8.10;99.90;;;7.48;100.00;99837.25;5020821;28;20449;-79
2023/11/21 05:48:22;;;;;;;62.97;19.00;;;8.10;99.90;;;7.44;100.00;99832.47;5015862;28;20037;-79
2023/11/21 05:50:49;;;;;;;56.33;19.58;;;8.10;99.90;;;7.41;100.00;99838.31;5015323;28;20037;-79
2023/11/21 05:53:15;;;;;;;55.38;17.83;;;8.10;99.90;;;7.47;100.00;99846.44;5012998;28;20056;-79
2023/11/21 05:55:42;;;;;;;49.70;18.40;;;8.10;99.90;;;7.37;100.00;99840.63;5019647;28;20034;-78
2023/11/21 05:58:07;;;;;;;44.20;15.52;;;8.10;99.90;;;7.32;100.00;99840.47;5016642;28;20470;-77
2023/11/21 06:00:33;;;;;;;48.67;15.85;;;8.10;99.90;;;7.32;100.00;99822.28;5024676;28;20045;-78
2023/11/21 06:02:59;;;;;;;45.92;17.00;;;8.10;99.90;;;7.36;100.00;99775.72;5018252;28;20042;-78
2023/11/21 06:05:26;;;;;;;47.28;17.73;;;8.10;99.90;;;7.42;100.00;99742.28;5013355;28;20508;-76
2023/11/21 06:07:54;;;;;;;48.05;18.00;;;8.10;99.90;;;7.34;100.00;99752.34;5030510;28;20052;-80
2023/11/21 06:10:23;;;;;;;47.22;18.20;;;8.10;99.90;;;7.34;100.00;99762.38;5016876;28;20026;-79
2023/11/21 06:12:49;;;;;;;45.53;17.52;;;8.10;99.90;;;7.34;100.00;99765.09;5017757;28;20063;-78
2023/11/21 06:15:16;;;;;;;47.53;17.45;;;8.10;99.90;;;7.38;100.00;99763.59;5014688;28;20080;-78
2023/11/21 06:17:42;;;;;;;50.97;16.90;;;8.10;99.90;;;7.33;100.00;99766.97;5029215;28;20041;-78
2023/11/21 06:20:13;;;;;;;54.90;17.70;;;8.10;99.90;;;7.38;100.00;99773.63;5015406;28;20474;-78
2023/11/21 06:22:42;;;;;;;49.20;17.90;;;8.10;99.90;;;7.34;100.00;99778.66;5013660;28;20486;-78
2023/11/21 06:25:09;;;;;;;48.63;15.73;;;8.10;99.90;;;7.37;100.00;99785.53;5023045;28;20072;-78
2023/11/21 06:27:40;;;;;;;49.03;17.35;;;8.10;99.90;;;7.34;100.00;99784.91;5013865;28;20052;-78
2023/11/21 06:30:06;;;;;;;46.40;17.15;;;8.10;99.90;;;7.29;100.00;99805.59;5017157;28;20390;-78
2023/11/21 06:32:32;;;;;;;42.28;16.17;;;8.00;99.90;;;7.24;100.00;99799.97;5022272;28;20033;-78
2023/11/21 06:35:01;;;;;;;43.58;17.02;;;8.00;99.90;;;7.24;100.00;99811.69;5028351;28;20042;-78
2023/11/21 06:37:28;;;;;;;23.75;10.82;;;7.90;99.90;;;7.07;100.00;99830.31;5020207;28;20037;-77
2023/11/21 06:39:56;;;;;;;19.38;8.38;;;7.80;99.90;;;6.85;100.00;99852.28;5018742;28;20501;-77
2023/11/21 06:42:22;;;;;;;16.75;8.23;;;7.60;99.90;;;6.74;100.00;99869.16;5029370;28;20504;-77
2023/11/21 06:44:48;;;;;;;15.02;7.45;;;7.40;99.90;;;6.62;100.00;99896.94;5027400;28;20041;-78
2023/11/21 06:47:15;;;;;;;15.82;7.97;;;7.30;99.90;;;6.45;100.00;99906.50;5029832;28;20037;-78
2023/11/21 06:49:42;;;;;;;18.33;8.52;;;7.20;99.90;;;6.36;100.00;99921.31;5027322;28;20081;-78
2023/11/21 06:52:08;;;;;;;20.35;9.50;;;7.10;99.90;;;6.39;100.00;99935.28;5027758;28;20121;-78
2023/11/21 06:54:35;;;;;;;21.38;8.93;;;7.00;99.90;;;6.41;100.00;99944.03;5025192;28;20058;-77
2023/11/21 06:57:01;;;;;;;20.02;8.35;;;7.00;99.90;;;6.37;100.00;99961.75;5026542;28;20033;-77
2023/11/21 06:59:29;;;;;;;14.88;7.57;;;7.00;99.90;;;6.32;100.00;99975.06;5026044;28;20040;-76
2023/11/21 07:01:54;;;;;;;18.23;8.65;;;6.90;99.90;;;6.25;100.00;99988.63;5028824;28;20511;-77
2023/11/21 07:04:20;;;;;;;17.25;8.57;;;6.90;99.90;;;6.29;100.00;100000.72;5027601;28;20037;-76
2023/11/21 07:06:46;;;;;;;16.75;8.48;;;6.90;99.90;;;6.27;100.00;100018.19;5024687;28;20048;-77
2023/11/21 07:09:12;;;;;;;17.73;9.00;;;6.90;99.90;;;6.25;100.00;100022.97;5026980;28;20037;-77
2023/11/21 07:11:38;;;;;;;19.95;9.85;;;6.90;99.90;;;6.13;100.00;100036.28;5025161;28;20124;-78
2023/11/21 07:14:08;;;;;;;19.88;10.07;;;6.80;99.90;;;6.16;100.00;100049.41;5027110;28;20029;-77
2023/11/21 07:16:37;;;;;;;19.25;9.77;;;6.80;99.90;;;6.12;100.00;100058.97;5025324;28;20033;-77
2023/11/21 07:19:07;;;;;;;20.10;9.55;;;6.80;99.90;;;6.09;100.00;100065.63;5017174;28;20401;-77
2023/11/21 07:21:36;;;;;;;19.65;9.95;;;6.70;99.90;;;6.02;100.00;100070.19;5019529;28;20106;-77
2023/11/21 07:24:03;;;;;;;20.27;10.15;;;6.70;99.90;;;6.07;100.00;100077.72;5022780;28;20401;-77
2023/11/21 07:26:30;;;;;;;19.52;10.27;;;6.70;99.90;;;6.04;100.00;100093.31;5032416;28;20025;-77
2023/11/21 07:28:56;;;;;;;20.95;9.93;;;6.70;99.90;;;6.05;100.00;100096.84;5023213;28;20095;-77
2023/11/21 07:31:23;;;;;;;22.55;10.57;;;6.70;99.90;;;6.02;100.00;100103.53;5019496;28;20041;-77
2023/11/21 07:33:50;;;;;;;22.80;10.82;;;6.70;99.90;;;5.96;100.00;100109.69;5025068;28;20050;-81
2023/11/21 07:36:18;;;;;;;18.80;10.00;;;6.60;99.90;;;5.96;100.00;100119.69;5021914;28;20447;-78
2023/11/21 07:38:44;;;;;;;21.50;10.48;;;6.60;99.90;;;5.90;100.00;100127.59;5017072;28;20441;-77
2023/11/21 07:41:11;;;;;;;23.42;10.43;;;6.60;99.90;;;5.88;100.00;100142.34;5013259;28;20106;-77
2023/11/21 07:43:37;;;;;;;20.70;10.80;;;6.60;99.90;;;5.92;100.00;100148.22;5012561;28;20105;-78
2023/11/21 07:46:04;;;;;;;23.27;10.50;;;6.60;99.90;;;5.94;100.00;100162.38;5012596;28;20030;-77
2023/11/21 07:48:31;;;;;;;23.33;10.77;;;6.60;99.90;;;5.95;100.00;100161.34;5033332;28;20038;-77
2023/11/21 07:51:01;;;;;;;23.67;10.83;;;6.60;99.90;;;5.97;100.00;100168.25;5015646;28;20037;-77
2023/11/21 07:53:29;;;;;;;23.48;10.65;;;6.60;99.90;;;5.92;100.00;100167.16;5016312;28;20037;-77
2023/11/21 07:55:56;;;;;;;24.52;11.40;;;6.60;99.90;;;6.00;100.00;100180.53;5012903;28;20065;-76
2023/11/21 07:58:22;;;;;;;22.15;10.73;;;6.60;99.90;;;6.01;100.00;100191.22;5018329;28;20053;-76
2023/11/21 08:00:49;;;;;;;23.48;11.30;;;6.70;99.90;;;6.00;100.00;100191.38;5021467;28;20045;-77
2023/11/21 08:03:15;;;;;;;20.90;10.45;;;6.70;99.90;;;5.98;100.00;100191.59;5015169;28;20129;-78
2023/11/21 08:05:42;;;;;;;22.67;10.48;;;6.70;99.90;;;6.03;100.00;100202.69;5036031;28;20053;-78
2023/11/21 08:08:07;;;;;;;24.70;11.02;;;6.60;99.90;;;6.05;100.00;100197.06;5020832;28;20497;-79
2023/11/21 08:10:35;;;;;;;21.30;10.05;;;6.70;99.90;;;6.08;100.00;100199.38;5022685;28;20136;-79
2023/11/21 08:13:02;;;;;;;19.70;10.50;;;6.70;99.90;;;6.14;100.00;100204.00;5024012;28;20080;-79
2023/11/21 08:15:28;;;;;;;21.75;9.65;;;6.70;99.90;;;6.17;100.00;100214.44;5031295;28;20441;-79
2023/11/21 08:17:53;;;;;;;22.85;10.80;;;6.70;99.90;;;6.21;100.00;100219.47;5033594;28;20045;-79
2023/11/21 08:20:19;;;;;;;22.50;10.10;;;6.70;99.90;;;6.13;100.00;100237.56;5026578;28;20030;-79
2023/11/21 08:22:47;;;;;;;22.27;10.52;;;6.70;99.90;;;6.19;100.00;100244.88;5025499;28;20037;-78
2023/11/21 08:25:13;;;;;;;;;;;6.70;99.90;;;6.12;100.00;100252.13;5039094;28;20104;-79
2023/11/21 08:27:38;;;;;;;21.75;11.30;;;6.70;99.90;;;6.13;100.00;100259.22;5012343;28;20053;-78
2023/11/21 08:30:05;;;;;;;21.73;11.65;;;6.70;99.90;;;6.10;100.00;100269.59;5012536;28;20055;-79
2023/11/21 08:32:33;;;;;;;22.02;12.25;;;6.70;99.90;;;6.06;100.00;100271.84;5012173;28;20489;-79
2023/11/21 08:35:00;;;;;;;28.40;13.23;;;6.70;99.90;;;5.99;100.00;100279.06;5012308;28;20060;-79
2023/11/21 08:37:27;;;;;;;26.30;12.85;;;6.60;99.90;;;5.97;100.00;100287.41;5021445;28;20099;-79
2023/11/21 08:39:53;;;;;;;26.00;13.40;;;6.60;99.90;;;6.01;100.00;100293.28;5023953;28;20042;-79
2023/11/21 08:42:19;;;;;;;28.50;14.02;;;6.60;99.90;;;5.98;100.00;100299.06;5025040;28;20040;-79
2023/11/21 08:44:45;;;;;;;25.67;13.07;;;6.60;99.90;;;5.95;100.00;100315.69;5026901;28;20044;-79
2023/11/21 08:47:11;;;;;;;27.00;13.90;;;6.60;99.90;;;6.07;100.00;100316.03;5022138;28;20381;-78
2023/11/21 08:49:37;;;;;;;28.67;14.52;;;6.60;99.90;;;6.08;100.00;100325.84;5007224;28;20069;-81
2023/11/21 08:52:05;;;;;;;26.33;13.75;;;6.60;99.90;;;6.10;100.00;100338.16;5023212;28;20115;-80
2023/11/21 08:54:31;;;;;;;30.63;13.20;;;6.70;99.90;;;6.16;100.00;100345.50;5025730;28;20046;-79
2023/11/21 08:56:58;;;;;;;23.23;13.48;;;6.70;99.90;;;6.19;100.00;100357.81;5028118;28;20068;-79
2023/11/21 08:59:25;;;;;;;25.10;13.02;;;6.80;99.90;;;6.28;100.00;100378.31;5023885;28;20041;-78
2023/11/21 09:01:50;;;;;;;23.13;13.07;;;6.80;99.90;;;6.35;100.00;100389.19;5015280;28;20080;-77
2023/11/21 09:04:16;;;;;;;22.17;11.98;;;6.90;99.90;;;6.41;100.00;100414.69;5011596;28;20097;-78
2023/11/21 09:06:42;;;;;;;19.73;12.13;;;7.00;99.90;;;6.52;100.00;100440.44;5011422;28;20482;-77
2023/11/21 09:09:10;;;;;;;18.92;11.10;;;7.10;99.90;;;6.64;100.00;100463.28;5024130;28;20029;-78
2023/11/21 09:11:36;;;;;;;19.85;10.98;;;7.20;99.90;;;6.85;100.00;100494.09;5011993;28;20091;-78
2023/11/21 09:14:03;;;;;;;19.15;11.52;;;7.30;99.90;;;7.26;100.00;100520.50;5017461;28;20424;-78
2023/11/21 09:16:29;;;;;;;17.58;10.35;;;7.70;99.90;;;7.56;100.00;100546.56;5022446;28;20044;-77
2023/11/21 09:18:55;;;;;;;16.73;9.93;;;8.00;99.90;;;7.74;100.00;100574.03;5011737;28;20389;-77
2023/11/21 09:21:21;;;;;;;14.02;8.60;;;8.30;99.90;;;7.74;100.00;100613.97;5021612;28;20049;-77
2023/11/21 09:23:48;;;;;;;13.02;8.32;;;8.40;99.90;;;7.98;100.00;100663.44;5010908;28;20041;-77
2023/11/21 09:26:16;;;;;;;12.98;7.90;;;8.60;99.90;;;7.91;100.00;100685.94;5016978;28;20033;-77
2023/11/21 09:28:46;;;;;;;11.65;7.68;;;8.60;99.90;;;7.91;100.00;100698.69;5011105;28;20057;-77
2023/11/21 09:31:12;;;;;;;11.77;7.55;;;8.60;99.90;;;7.95;100.00;100710.84;5011755;28;20491;-77
2023/11/21 09:33:38;;;;;;;11.27;7.82;;;8.60;99.90;;;7.76;100.00;100715.09;5011679;28;20125;-78
2023/11/21 09:36:05;;;;;;;11.13;7.32;;;8.60;99.90;;;7.61;100.00;100717.88;5011148;28;20050;-78
2023/11/21 09:38:31;;;;;;;12.07;7.35;;;8.40;99.90;;;7.80;100.00;100723.66;5011903;28;20042;-78
2023/11/21 09:40:58;;;;;;;13.00;7.35;;;8.40;99.90;;;7.80;100.00;100726.38;5012032;28;20038;-78
2023/11/21 09:43:27;;;;;;;10.90;6.82;;;8.40;99.90;;;7.69;100.00;100744.03;5014914;28;20044;-78
2023/11/21 09:46:01;;;;;;;10.55;6.65;;;8.40;99.90;;;7.40;100.00;100744.00;5016843;28;20034;-78
2023/11/21 09:48:30;;;;;;;10.60;6.53;;;8.30;99.90;;;7.18;100.00;100754.81;5011780;28;20044;-78
2023/11/21 09:50:59;;;;;;;10.32;6.13;;;8.00;99.90;;;7.31;100.00;100754.13;5027167;28;20037;-78
2023/11/21 09:53:29;;;;;;;12.40;6.63;;;8.00;99.90;;;7.30;100.00;100747.03;5011559;28;20057;-79
2023/11/21 09:55:56;;;;;;;10.13;6.20;;;8.00;99.90;;;7.11;100.00;100753.91;5018439;28;20042;-83
2023/11/21 09:58:24;;;;;;;11.52;6.53;;;7.90;99.90;;;7.03;100.00;100773.03;5016873;28;20433;-78
2023/11/21 10:00:59;;;;;;;10.02;5.85;;;7.80;99.90;;;7.22;100.00;100782.44;5019362;28;20041;-81
2023/11/21 10:03:26;;;;;;;11.50;5.80;;;7.90;99.90;;;7.17;100.00;100777.56;5029938;28;20133;-79
2023/11/21 10:05:56;;;;;;;8.95;5.75;;;7.90;99.90;;;7.13;100.00;100780.84;5029675;28;20444;-79
2023/11/21 10:08:24;;;;;;;8.23;5.45;;;7.80;99.90;;;7.33;100.00;100787.34;5024675;28;20048;-80
2023/11/21 10:10:53;;;;;;;;;;;7.90;99.90;;;7.31;100.00;100794.84;5022987;28;20026;-79